sensor_id;sensor_type;location;lat;lon;timestamp;temperature;humidity
32522;DHT22;18963;51.504;5.316;2023-06-22T00:00:29;16.70;99.90
32522;DHT22;18963;51.504;5.316;2023-06-22T00:02:55;16.70;99.90
32522;DHT22;18963;51.504;5.316;2023-06-22T00:05:20;16.60;99.90
32522;DHT22;18963;51.504;5.316;2023-06-22T00:07:46;16.60;99.90
32522;DHT22;18963;51.504;5.316;2023-06-22T00:10:11;16.50;99.90
32522;DHT22;18963;51.504;5.316;2023-06-22T00:12:37;16.50;99.90
32522;DHT22;18963;51.504;5.316;2023-06-22T00:15:02;16.50;99.90
32522;DHT22;18963;51.504;5.316;2023-06-22T00:17:28;16.50;99.90
32522;DHT22;18963;51.504;5.316;2023-06-22T00:19:53;16.50;99.90
32522;DHT22;18963;51.504;5.316;2023-06-22T00:22:20;16.50;99.90
32522;DHT22;18963;51.504;5.316;2023-06-22T00:24:56;16.40;99.90
32522;DHT22;18963;51.504;5.316;2023-06-22T00:27:22;16.30;99.90
32522;DHT22;18963;51.504;5.316;2023-06-22T00:29:47;16.30;99.90
32522;DHT22;18963;51.504;5.316;2023-06-22T00:32:13;16.20;99.90
32522;DHT22;18963;51.504;5.316;2023-06-22T00:34:38;16.10;99.90
32522;DHT22;18963;51.504;5.316;2023-06-22T00:37:04;16.00;99.90
32522;DHT22;18963;51.504;5.316;2023-06-22T00:39:29;15.90;99.90
32522;DHT22;18963;51.504;5.316;2023-06-22T00:41:55;15.90;99.90
32522;DHT22;18963;51.504;5.316;2023-06-22T00:44:21;15.80;99.90
32522;DHT22;18963;51.504;5.316;2023-06-22T00:46:46;15.80;99.90
32522;DHT22;18963;51.504;5.316;2023-06-22T00:49:12;15.80;99.90
32522;DHT22;18963;51.504;5.316;2023-06-22T00:51:37;15.80;99.90
32522;DHT22;18963;51.504;5.316;2023-06-22T00:54:04;15.70;99.90
32522;DHT22;18963;51.504;5.316;2023-06-22T00:56:30;15.80;99.90
32522;DHT22;18963;51.504;5.316;2023-06-22T00:58:57;15.90;99.90
32522;DHT22;18963;51.504;5.316;2023-06-22T01:01:24;15.90;99.90
32522;DHT22;18963;51.504;5.316;2023-06-22T01:03:50;15.90;99.90
32522;DHT22;18963;51.504;5.316;2023-06-22T01:06:17;16.00;99.90
32522;DHT22;18963;51.504;5.316;2023-06-22T01:09:31;16.00;99.90
32522;DHT22;18963;51.504;5.316;2023-06-22T01:11:41;16.00;99.90
32522;DHT22;18963;51.504;5.316;2023-06-22T01:14:12;16.00;99.90
32522;DHT22;18963;51.504;5.316;2023-06-22T01:16:43;16.10;99.90
32522;DHT22;18963;51.504;5.316;2023-06-22T01:21:44;16.00;99.90
32522;DHT22;18963;51.504;5.316;2023-06-22T01:24:15;16.00;99.90
32522;DHT22;18963;51.504;5.316;2023-06-22T01:29:11;15.90;99.90
32522;DHT22;18963;51.504;5.316;2023-06-22T01:31:39;15.80;99.90
32522;DHT22;18963;51.504;5.316;2023-06-22T01:34:05;15.80;99.90
32522;DHT22;18963;51.504;5.316;2023-06-22T01:36:31;15.80;99.90
32522;DHT22;18963;51.504;5.316;2023-06-22T01:38:58;15.80;99.90
32522;DHT22;18963;51.504;5.316;2023-06-22T01:41:25;15.70;99.90
32522;DHT22;18963;51.504;5.316;2023-06-22T01:43:51;15.80;99.90
32522;DHT22;18963;51.504;5.316;2023-06-22T01:46:17;15.80;99.90
32522;DHT22;18963;51.504;5.316;2023-06-22T01:48:44;15.80;99.90
32522;DHT22;18963;51.504;5.316;2023-06-22T01:51:10;15.80;99.90
32522;DHT22;18963;51.504;5.316;2023-06-22T01:53:36;15.80;99.90
32522;DHT22;18963;51.504;5.316;2023-06-22T01:56:01;15.80;99.90
32522;DHT22;18963;51.504;5.316;2023-06-22T01:58:27;15.70;99.90
32522;DHT22;18963;51.504;5.316;2023-06-22T02:00:58;15.70;99.90
32522;DHT22;18963;51.504;5.316;2023-06-22T02:03:34;15.70;99.90
32522;DHT22;18963;51.504;5.316;2023-06-22T02:06:03;15.60;99.90
32522;DHT22;18963;51.504;5.316;2023-06-22T02:08:30;15.70;99.90
32522;DHT22;18963;51.504;5.316;2023-06-22T02:10:57;15.80;99.90
32522;DHT22;18963;51.504;5.316;2023-06-22T02:13:24;15.80;99.90
32522;DHT22;18963;51.504;5.316;2023-06-22T02:15:49;15.80;99.90
32522;DHT22;18963;51.504;5.316;2023-06-22T02:18:15;15.90;99.90
32522;DHT22;18963;51.504;5.316;2023-06-22T02:20:41;15.90;99.90
32522;DHT22;18963;51.504;5.316;2023-06-22T02:23:06;15.90;99.90
32522;DHT22;18963;51.504;5.316;2023-06-22T02:25:32;15.90;99.90
32522;DHT22;18963;51.504;5.316;2023-06-22T02:27:58;16.00;99.90
32522;DHT22;18963;51.504;5.316;2023-06-22T02:30:23;16.00;99.90
32522;DHT22;18963;51.504;5.316;2023-06-22T02:32:49;16.00;99.90
32522;DHT22;18963;51.504;5.316;2023-06-22T02:35:16;16.00;99.90
32522;DHT22;18963;51.504;5.316;2023-06-22T02:37:42;15.90;99.90
32522;DHT22;18963;51.504;5.316;2023-06-22T02:40:08;15.90;99.90
32522;DHT22;18963;51.504;5.316;2023-06-22T02:42:36;15.90;99.90
32522;DHT22;18963;51.504;5.316;2023-06-22T02:45:02;15.90;99.90
32522;DHT22;18963;51.504;5.316;2023-06-22T02:47:28;15.90;99.90
32522;DHT22;18963;51.504;5.316;2023-06-22T02:49:53;15.90;99.90
32522;DHT22;18963;51.504;5.316;2023-06-22T02:52:19;15.90;99.90
32522;DHT22;18963;51.504;5.316;2023-06-22T02:54:44;15.80;99.90
32522;DHT22;18963;51.504;5.316;2023-06-22T02:57:11;15.80;99.90
32522;DHT22;18963;51.504;5.316;2023-06-22T02:59:41;15.80;99.90
32522;DHT22;18963;51.504;5.316;2023-06-22T03:02:07;15.70;99.90
32522;DHT22;18963;51.504;5.316;2023-06-22T03:04:34;15.70;99.90
32522;DHT22;18963;51.504;5.316;2023-06-22T03:06:59;15.70;99.90
32522;DHT22;18963;51.504;5.316;2023-06-22T03:09:26;15.60;99.90
32522;DHT22;18963;51.504;5.316;2023-06-22T03:11:53;15.60;99.90
32522;DHT22;18963;51.504;5.316;2023-06-22T03:14:18;15.60;99.90
32522;DHT22;18963;51.504;5.316;2023-06-22T03:16:44;15.70;99.90
32522;DHT22;18963;51.504;5.316;2023-06-22T03:19:10;15.70;99.90
32522;DHT22;18963;51.504;5.316;2023-06-22T03:21:37;15.70;99.90
32522;DHT22;18963;51.504;5.316;2023-06-22T03:24:04;15.70;99.90
32522;DHT22;18963;51.504;5.316;2023-06-22T03:26:29;15.80;99.90
32522;DHT22;18963;51.504;5.316;2023-06-22T03:28:55;15.70;99.90
32522;DHT22;18963;51.504;5.316;2023-06-22T03:31:20;15.70;99.90
32522;DHT22;18963;51.504;5.316;2023-06-22T03:33:47;15.70;99.90
32522;DHT22;18963;51.504;5.316;2023-06-22T03:36:13;15.70;99.90
32522;DHT22;18963;51.504;5.316;2023-06-22T03:38:39;15.70;99.90
32522;DHT22;18963;51.504;5.316;2023-06-22T03:41:04;15.70;99.90
32522;DHT22;18963;51.504;5.316;2023-06-22T03:43:30;15.70;99.90
32522;DHT22;18963;51.504;5.316;2023-06-22T03:45:55;15.70;99.90
32522;DHT22;18963;51.504;5.316;2023-06-22T03:48:21;15.70;99.90
32522;DHT22;18963;51.504;5.316;2023-06-22T03:50:46;15.70;99.90
32522;DHT22;18963;51.504;5.316;2023-06-22T03:53:12;15.70;99.90
32522;DHT22;18963;51.504;5.316;2023-06-22T03:55:40;15.70;99.90
32522;DHT22;18963;51.504;5.316;2023-06-22T03:58:06;15.70;99.90
32522;DHT22;18963;51.504;5.316;2023-06-22T04:00:31;15.60;99.90
32522;DHT22;18963;51.504;5.316;2023-06-22T04:02:57;15.60;99.90
32522;DHT22;18963;51.504;5.316;2023-06-22T04:05:22;15.60;99.90
32522;DHT22;18963;51.504;5.316;2023-06-22T04:07:49;15.60;99.90
32522;DHT22;18963;51.504;5.316;2023-06-22T04:10:15;15.70;99.90
32522;DHT22;18963;51.504;5.316;2023-06-22T04:12:40;15.70;99.90
32522;DHT22;18963;51.504;5.316;2023-06-22T04:15:06;15.80;99.90
32522;DHT22;18963;51.504;5.316;2023-06-22T04:17:31;15.80;99.90
32522;DHT22;18963;51.504;5.316;2023-06-22T04:19:57;15.90;99.90
32522;DHT22;18963;51.504;5.316;2023-06-22T04:22:22;15.90;99.90
32522;DHT22;18963;51.504;5.316;2023-06-22T04:24:48;15.90;99.90
32522;DHT22;18963;51.504;5.316;2023-06-22T04:27:13;15.90;99.90
32522;DHT22;18963;51.504;5.316;2023-06-22T04:29:39;15.90;99.90
32522;DHT22;18963;51.504;5.316;2023-06-22T04:32:16;16.00;99.90
32522;DHT22;18963;51.504;5.316;2023-06-22T04:34:42;16.00;99.90
32522;DHT22;18963;51.504;5.316;2023-06-22T04:37:08;16.10;99.90
32522;DHT22;18963;51.504;5.316;2023-06-22T04:39:34;16.10;99.90
32522;DHT22;18963;51.504;5.316;2023-06-22T04:41:59;16.10;99.90
32522;DHT22;18963;51.504;5.316;2023-06-22T04:44:25;16.20;99.90
32522;DHT22;18963;51.504;5.316;2023-06-22T04:46:51;16.30;99.90
32522;DHT22;18963;51.504;5.316;2023-06-22T04:49:23;16.40;99.90
32522;DHT22;18963;51.504;5.316;2023-06-22T04:51:48;16.50;99.90
32522;DHT22;18963;51.504;5.316;2023-06-22T04:54:17;16.60;99.90
32522;DHT22;18963;51.504;5.316;2023-06-22T04:56:42;16.80;99.90
32522;DHT22;18963;51.504;5.316;2023-06-22T04:59:08;16.90;99.90
32522;DHT22;18963;51.504;5.316;2023-06-22T05:01:33;17.00;99.90
32522;DHT22;18963;51.504;5.316;2023-06-22T05:04:00;17.10;99.90
32522;DHT22;18963;51.504;5.316;2023-06-22T05:06:26;17.20;99.90
32522;DHT22;18963;51.504;5.316;2023-06-22T05:08:55;17.30;99.90
32522;DHT22;18963;51.504;5.316;2023-06-22T05:11:24;17.40;99.90
32522;DHT22;18963;51.504;5.316;2023-06-22T05:13:50;17.50;99.90
32522;DHT22;18963;51.504;5.316;2023-06-22T05:16:16;17.70;99.90
32522;DHT22;18963;51.504;5.316;2023-06-22T05:18:41;17.80;99.90
32522;DHT22;18963;51.504;5.316;2023-06-22T05:21:07;17.90;99.90
32522;DHT22;18963;51.504;5.316;2023-06-22T05:23:32;18.00;99.90
32522;DHT22;18963;51.504;5.316;2023-06-22T05:25:58;18.10;99.90
32522;DHT22;18963;51.504;5.316;2023-06-22T05:28:23;18.20;99.90
32522;DHT22;18963;51.504;5.316;2023-06-22T05:30:49;18.30;99.90
32522;DHT22;18963;51.504;5.316;2023-06-22T05:33:15;18.40;99.90
32522;DHT22;18963;51.504;5.316;2023-06-22T05:35:40;18.40;99.90
32522;DHT22;18963;51.504;5.316;2023-06-22T05:38:07;18.60;99.90
32522;DHT22;18963;51.504;5.316;2023-06-22T05:40:33;18.70;99.90
32522;DHT22;18963;51.504;5.316;2023-06-22T05:42:58;18.90;99.90
32522;DHT22;18963;51.504;5.316;2023-06-22T05:45:25;19.00;99.90
32522;DHT22;18963;51.504;5.316;2023-06-22T05:47:51;19.10;99.90
32522;DHT22;18963;51.504;5.316;2023-06-22T05:50:16;19.20;99.90
32522;DHT22;18963;51.504;5.316;2023-06-22T05:52:42;19.20;99.90
32522;DHT22;18963;51.504;5.316;2023-06-22T05:55:08;19.20;99.90
32522;DHT22;18963;51.504;5.316;2023-06-22T05:57:33;19.30;99.90
32522;DHT22;18963;51.504;5.316;2023-06-22T05:59:59;19.40;99.90
32522;DHT22;18963;51.504;5.316;2023-06-22T06:02:24;19.40;99.90
32522;DHT22;18963;51.504;5.316;2023-06-22T06:04:50;19.50;99.90
32522;DHT22;18963;51.504;5.316;2023-06-22T06:07:18;19.60;99.90
32522;DHT22;18963;51.504;5.316;2023-06-22T06:09:43;19.70;99.90
32522;DHT22;18963;51.504;5.316;2023-06-22T06:12:09;19.70;99.90
32522;DHT22;18963;51.504;5.316;2023-06-22T06:14:34;19.80;99.90
32522;DHT22;18963;51.504;5.316;2023-06-22T06:17:00;20.00;99.90
32522;DHT22;18963;51.504;5.316;2023-06-22T06:19:25;20.10;99.90
32522;DHT22;18963;51.504;5.316;2023-06-22T06:21:51;20.20;99.90
32522;DHT22;18963;51.504;5.316;2023-06-22T06:24:16;20.30;99.90
32522;DHT22;18963;51.504;5.316;2023-06-22T06:26:42;20.40;99.90
32522;DHT22;18963;51.504;5.316;2023-06-22T06:29:07;20.50;99.90
32522;DHT22;18963;51.504;5.316;2023-06-22T06:31:33;20.60;99.90
32522;DHT22;18963;51.504;5.316;2023-06-22T06:33:58;20.70;99.90
32522;DHT22;18963;51.504;5.316;2023-06-22T06:36:24;20.80;99.90
32522;DHT22;18963;51.504;5.316;2023-06-22T06:38:49;20.90;99.90
32522;DHT22;18963;51.504;5.316;2023-06-22T06:41:15;20.90;99.90
32522;DHT22;18963;51.504;5.316;2023-06-22T06:43:41;21.00;99.90
32522;DHT22;18963;51.504;5.316;2023-06-22T06:46:08;21.10;99.90
32522;DHT22;18963;51.504;5.316;2023-06-22T06:48:34;21.20;99.90
32522;DHT22;18963;51.504;5.316;2023-06-22T06:50:59;21.40;99.90
32522;DHT22;18963;51.504;5.316;2023-06-22T06:53:25;21.40;99.90
32522;DHT22;18963;51.504;5.316;2023-06-22T06:55:50;21.40;99.90
32522;DHT22;18963;51.504;5.316;2023-06-22T06:58:16;21.50;99.90
32522;DHT22;18963;51.504;5.316;2023-06-22T07:00:41;21.50;99.90
32522;DHT22;18963;51.504;5.316;2023-06-22T07:03:11;21.50;99.90
32522;DHT22;18963;51.504;5.316;2023-06-22T07:05:36;21.60;99.90
32522;DHT22;18963;51.504;5.316;2023-06-22T07:08:02;21.50;99.90
32522;DHT22;18963;51.504;5.316;2023-06-22T07:10:28;21.50;99.90
32522;DHT22;18963;51.504;5.316;2023-06-22T07:12:53;21.40;99.90
32522;DHT22;18963;51.504;5.316;2023-06-22T07:15:19;21.40;99.90
32522;DHT22;18963;51.504;5.316;2023-06-22T07:17:44;21.30;99.90
32522;DHT22;18963;51.504;5.316;2023-06-22T07:20:10;21.20;99.90
32522;DHT22;18963;51.504;5.316;2023-06-22T07:22:40;21.20;99.90
32522;DHT22;18963;51.504;5.316;2023-06-22T07:25:06;21.20;99.90
32522;DHT22;18963;51.504;5.316;2023-06-22T07:27:38;21.10;99.90
32522;DHT22;18963;51.504;5.316;2023-06-22T07:30:05;21.10;99.90
32522;DHT22;18963;51.504;5.316;2023-06-22T07:32:31;21.10;99.90
32522;DHT22;18963;51.504;5.316;2023-06-22T07:34:56;21.00;99.90
32522;DHT22;18963;51.504;5.316;2023-06-22T07:37:22;21.00;99.90
32522;DHT22;18963;51.504;5.316;2023-06-22T07:39:47;20.90;99.90
32522;DHT22;18963;51.504;5.316;2023-06-22T07:42:13;20.90;99.90
32522;DHT22;18963;51.504;5.316;2023-06-22T07:44:44;20.90;99.90
32522;DHT22;18963;51.504;5.316;2023-06-22T07:47:09;20.90;99.90
32522;DHT22;18963;51.504;5.316;2023-06-22T07:49:35;20.80;99.90
32522;DHT22;18963;51.504;5.316;2023-06-22T07:52:00;20.60;99.90
32522;DHT22;18963;51.504;5.316;2023-06-22T07:54:27;20.40;99.90
32522;DHT22;18963;51.504;5.316;2023-06-22T07:56:52;20.30;99.90
32522;DHT22;18963;51.504;5.316;2023-06-22T07:59:18;20.10;99.90
32522;DHT22;18963;51.504;5.316;2023-06-22T08:01:43;19.90;99.90
32522;DHT22;18963;51.504;5.316;2023-06-22T08:04:09;19.90;99.90
32522;DHT22;18963;51.504;5.316;2023-06-22T08:06:34;19.80;99.90
32522;DHT22;18963;51.504;5.316;2023-06-22T08:09:00;19.80;99.90
32522;DHT22;18963;51.504;5.316;2023-06-22T08:11:25;19.80;99.90
32522;DHT22;18963;51.504;5.316;2023-06-22T08:13:51;19.90;99.90
32522;DHT22;18963;51.504;5.316;2023-06-22T08:16:17;19.80;99.90
32522;DHT22;18963;51.504;5.316;2023-06-22T08:18:42;19.90;99.90
32522;DHT22;18963;51.504;5.316;2023-06-22T08:21:08;20.00;99.90
32522;DHT22;18963;51.504;5.316;2023-06-22T08:23:34;20.00;99.90
32522;DHT22;18963;51.504;5.316;2023-06-22T08:26:00;20.10;99.90
32522;DHT22;18963;51.504;5.316;2023-06-22T08:28:25;20.20;99.90
32522;DHT22;18963;51.504;5.316;2023-06-22T08:30:51;20.30;99.90
32522;DHT22;18963;51.504;5.316;2023-06-22T08:33:16;20.30;99.90
32522;DHT22;18963;51.504;5.316;2023-06-22T08:35:42;20.40;99.90
32522;DHT22;18963;51.504;5.316;2023-06-22T08:38:08;20.40;99.90
32522;DHT22;18963;51.504;5.316;2023-06-22T08:40:34;20.50;99.90
32522;DHT22;18963;51.504;5.316;2023-06-22T08:43:00;20.60;99.90
32522;DHT22;18963;51.504;5.316;2023-06-22T08:45:25;20.60;99.90
32522;DHT22;18963;51.504;5.316;2023-06-22T08:47:51;20.60;99.90
32522;DHT22;18963;51.504;5.316;2023-06-22T08:50:16;20.70;99.90
32522;DHT22;18963;51.504;5.316;2023-06-22T08:52:42;20.80;99.90
32522;DHT22;18963;51.504;5.316;2023-06-22T08:55:07;20.80;99.90
32522;DHT22;18963;51.504;5.316;2023-06-22T08:57:34;20.80;99.90
32522;DHT22;18963;51.504;5.316;2023-06-22T08:59:59;20.80;99.90
32522;DHT22;18963;51.504;5.316;2023-06-22T09:02:25;20.80;99.90
32522;DHT22;18963;51.504;5.316;2023-06-22T09:04:51;20.80;99.90
32522;DHT22;18963;51.504;5.316;2023-06-22T09:07:21;20.80;99.90
32522;DHT22;18963;51.504;5.316;2023-06-22T09:09:47;20.80;99.90
32522;DHT22;18963;51.504;5.316;2023-06-22T09:12:13;20.80;99.90
32522;DHT22;18963;51.504;5.316;2023-06-22T09:14:38;20.80;99.90
32522;DHT22;18963;51.504;5.316;2023-06-22T09:17:04;20.80;99.90
32522;DHT22;18963;51.504;5.316;2023-06-22T09:19:29;20.80;99.90
32522;DHT22;18963;51.504;5.316;2023-06-22T09:21:55;20.80;99.90
32522;DHT22;18963;51.504;5.316;2023-06-22T09:24:20;20.80;99.90
32522;DHT22;18963;51.504;5.316;2023-06-22T09:26:46;20.90;99.90
32522;DHT22;18963;51.504;5.316;2023-06-22T09:29:11;20.90;99.90
32522;DHT22;18963;51.504;5.316;2023-06-22T09:31:37;20.90;99.90
32522;DHT22;18963;51.504;5.316;2023-06-22T09:34:02;21.00;99.90
32522;DHT22;18963;51.504;5.316;2023-06-22T09:36:27;21.00;99.90
32522;DHT22;18963;51.504;5.316;2023-06-22T09:38:53;21.10;99.90
32522;DHT22;18963;51.504;5.316;2023-06-22T09:41:24;21.20;99.90
32522;DHT22;18963;51.504;5.316;2023-06-22T09:43:49;21.30;99.90
32522;DHT22;18963;51.504;5.316;2023-06-22T09:46:15;21.40;99.90
32522;DHT22;18963;51.504;5.316;2023-06-22T09:48:41;21.40;99.90
32522;DHT22;18963;51.504;5.316;2023-06-22T09:51:06;21.50;99.90
32522;DHT22;18963;51.504;5.316;2023-06-22T09:53:32;21.60;99.90
32522;DHT22;18963;51.504;5.316;2023-06-22T09:55:57;21.60;99.90
32522;DHT22;18963;51.504;5.316;2023-06-22T09:58:23;21.70;99.90
32522;DHT22;18963;51.504;5.316;2023-06-22T10:00:48;21.70;99.90
32522;DHT22;18963;51.504;5.316;2023-06-22T10:03:14;21.70;99.90
32522;DHT22;18963;51.504;5.316;2023-06-22T10:05:39;21.80;99.90
32522;DHT22;18963;51.504;5.316;2023-06-22T10:08:05;21.90;99.90
32522;DHT22;18963;51.504;5.316;2023-06-22T10:10:33;21.90;99.90
32522;DHT22;18963;51.504;5.316;2023-06-22T10:13:02;22.00;99.90
32522;DHT22;18963;51.504;5.316;2023-06-22T10:15:28;22.00;99.90
32522;DHT22;18963;51.504;5.316;2023-06-22T10:17:53;22.10;99.90
32522;DHT22;18963;51.504;5.316;2023-06-22T10:20:19;22.10;99.90
32522;DHT22;18963;51.504;5.316;2023-06-22T10:22:46;22.10;99.90
32522;DHT22;18963;51.504;5.316;2023-06-22T10:25:12;22.00;99.90
32522;DHT22;18963;51.504;5.316;2023-06-22T10:27:37;22.00;99.90
32522;DHT22;18963;51.504;5.316;2023-06-22T10:30:09;21.80;99.90
32522;DHT22;18963;51.504;5.316;2023-06-22T10:32:35;21.80;99.90
32522;DHT22;18963;51.504;5.316;2023-06-22T10:35:02;21.60;99.90
32522;DHT22;18963;51.504;5.316;2023-06-22T10:37:27;21.50;99.90
32522;DHT22;18963;51.504;5.316;2023-06-22T10:39:53;21.40;99.90
32522;DHT22;18963;51.504;5.316;2023-06-22T10:42:18;21.30;99.90
32522;DHT22;18963;51.504;5.316;2023-06-22T10:44:44;21.10;99.90
32522;DHT22;18963;51.504;5.316;2023-06-22T10:47:09;21.00;99.90
32522;DHT22;18963;51.504;5.316;2023-06-22T10:49:37;20.80;99.90
32522;DHT22;18963;51.504;5.316;2023-06-22T10:52:03;20.70;99.90
32522;DHT22;18963;51.504;5.316;2023-06-22T10:54:28;20.60;99.90
32522;DHT22;18963;51.504;5.316;2023-06-22T10:56:54;20.60;99.90
32522;DHT22;18963;51.504;5.316;2023-06-22T10:59:19;20.50;99.90
32522;DHT22;18963;51.504;5.316;2023-06-22T11:01:46;20.50;99.90
32522;DHT22;18963;51.504;5.316;2023-06-22T11:04:12;20.50;99.90
32522;DHT22;18963;51.504;5.316;2023-06-22T11:06:37;20.40;99.90
32522;DHT22;18963;51.504;5.316;2023-06-22T11:09:03;20.30;99.90
32522;DHT22;18963;51.504;5.316;2023-06-22T11:11:29;20.30;99.90
32522;DHT22;18963;51.504;5.316;2023-06-22T11:13:55;20.30;99.90
32522;DHT22;18963;51.504;5.316;2023-06-22T11:16:20;20.30;99.90
32522;DHT22;18963;51.504;5.316;2023-06-22T11:18:46;20.20;99.90
32522;DHT22;18963;51.504;5.316;2023-06-22T11:21:11;20.20;99.90
32522;DHT22;18963;51.504;5.316;2023-06-22T11:23:36;20.10;99.90
32522;DHT22;18963;51.504;5.316;2023-06-22T11:26:02;20.10;99.90
32522;DHT22;18963;51.504;5.316;2023-06-22T11:28:28;20.00;99.90
32522;DHT22;18963;51.504;5.316;2023-06-22T11:30:53;20.00;99.90
32522;DHT22;18963;51.504;5.316;2023-06-22T11:33:19;20.00;99.90
32522;DHT22;18963;51.504;5.316;2023-06-22T11:35:44;19.90;99.90
32522;DHT22;18963;51.504;5.316;2023-06-22T11:38:10;19.80;99.90
32522;DHT22;18963;51.504;5.316;2023-06-22T11:40:35;19.70;99.90
32522;DHT22;18963;51.504;5.316;2023-06-22T11:43:01;19.50;99.90
32522;DHT22;18963;51.504;5.316;2023-06-22T11:45:26;19.40;99.90
32522;DHT22;18963;51.504;5.316;2023-06-22T11:47:52;19.40;99.90
32522;DHT22;18963;51.504;5.316;2023-06-22T11:50:17;19.30;99.90
32522;DHT22;18963;51.504;5.316;2023-06-22T11:52:43;19.20;99.90
32522;DHT22;18963;51.504;5.316;2023-06-22T11:55:08;19.20;99.90
32522;DHT22;18963;51.504;5.316;2023-06-22T11:57:35;19.10;99.90
32522;DHT22;18963;51.504;5.316;2023-06-22T12:00:01;19.00;99.90
32522;DHT22;18963;51.504;5.316;2023-06-22T12:02:31;18.90;99.90
32522;DHT22;18963;51.504;5.316;2023-06-22T12:04:57;18.90;99.90
32522;DHT22;18963;51.504;5.316;2023-06-22T12:07:23;18.80;99.90
32522;DHT22;18963;51.504;5.316;2023-06-22T12:09:49;18.80;99.90
32522;DHT22;18963;51.504;5.316;2023-06-22T12:12:15;18.80;99.90
32522;DHT22;18963;51.504;5.316;2023-06-22T12:14:40;18.70;99.90
32522;DHT22;18963;51.504;5.316;2023-06-22T12:17:06;18.60;99.90
32522;DHT22;18963;51.504;5.316;2023-06-22T12:19:31;18.70;99.90
32522;DHT22;18963;51.504;5.316;2023-06-22T12:21:57;18.60;99.90
32522;DHT22;18963;51.504;5.316;2023-06-22T12:24:23;18.50;99.90
32522;DHT22;18963;51.504;5.316;2023-06-22T12:26:48;18.50;99.90
32522;DHT22;18963;51.504;5.316;2023-06-22T12:29:14;18.50;99.90
32522;DHT22;18963;51.504;5.316;2023-06-22T12:31:39;18.50;99.90
32522;DHT22;18963;51.504;5.316;2023-06-22T12:34:05;18.50;99.90
32522;DHT22;18963;51.504;5.316;2023-06-22T12:36:30;18.50;99.90
32522;DHT22;18963;51.504;5.316;2023-06-22T12:38:56;18.40;99.90
32522;DHT22;18963;51.504;5.316;2023-06-22T12:41:21;18.40;99.90
32522;DHT22;18963;51.504;5.316;2023-06-22T12:43:47;18.40;99.90
32522;DHT22;18963;51.504;5.316;2023-06-22T12:46:13;18.50;99.90
32522;DHT22;18963;51.504;5.316;2023-06-22T12:48:38;18.50;99.90
32522;DHT22;18963;51.504;5.316;2023-06-22T12:51:07;18.50;99.90
32522;DHT22;18963;51.504;5.316;2023-06-22T12:53:33;18.40;99.90
32522;DHT22;18963;51.504;5.316;2023-06-22T12:55:59;18.40;99.90
32522;DHT22;18963;51.504;5.316;2023-06-22T12:58:25;18.50;99.90
32522;DHT22;18963;51.504;5.316;2023-06-22T13:00:50;18.40;99.90
32522;DHT22;18963;51.504;5.316;2023-06-22T13:03:16;18.40;99.90
32522;DHT22;18963;51.504;5.316;2023-06-22T13:05:41;18.40;99.90
32522;DHT22;18963;51.504;5.316;2023-06-22T13:08:07;18.40;99.90
32522;DHT22;18963;51.504;5.316;2023-06-22T13:10:33;18.30;99.90
32522;DHT22;18963;51.504;5.316;2023-06-22T13:12:59;18.30;99.90
32522;DHT22;18963;51.504;5.316;2023-06-22T13:15:26;18.30;99.90
32522;DHT22;18963;51.504;5.316;2023-06-22T13:17:52;18.20;99.90
32522;DHT22;18963;51.504;5.316;2023-06-22T13:20:18;18.10;99.90
32522;DHT22;18963;51.504;5.316;2023-06-22T13:22:43;18.10;99.90
32522;DHT22;18963;51.504;5.316;2023-06-22T13:25:09;18.20;99.90
32522;DHT22;18963;51.504;5.316;2023-06-22T13:27:38;18.10;99.90
32522;DHT22;18963;51.504;5.316;2023-06-22T13:30:04;18.10;99.90
32522;DHT22;18963;51.504;5.316;2023-06-22T13:32:30;18.10;99.90
32522;DHT22;18963;51.504;5.316;2023-06-22T13:34:55;18.00;99.90
32522;DHT22;18963;51.504;5.316;2023-06-22T13:37:21;18.10;99.90
32522;DHT22;18963;51.504;5.316;2023-06-22T13:39:46;18.10;99.90
32522;DHT22;18963;51.504;5.316;2023-06-22T13:42:12;18.00;99.90
32522;DHT22;18963;51.504;5.316;2023-06-22T13:44:37;18.00;99.90
32522;DHT22;18963;51.504;5.316;2023-06-22T13:47:03;18.00;99.90
32522;DHT22;18963;51.504;5.316;2023-06-22T13:49:30;18.10;99.90
32522;DHT22;18963;51.504;5.316;2023-06-22T13:51:55;18.10;99.90
32522;DHT22;18963;51.504;5.316;2023-06-22T13:54:21;18.10;99.90
32522;DHT22;18963;51.504;5.316;2023-06-22T13:56:46;18.10;99.90
32522;DHT22;18963;51.504;5.316;2023-06-22T13:59:12;18.10;99.90
32522;DHT22;18963;51.504;5.316;2023-06-22T14:01:37;18.10;99.90
32522;DHT22;18963;51.504;5.316;2023-06-22T14:04:05;18.10;99.90
32522;DHT22;18963;51.504;5.316;2023-06-22T14:06:30;18.10;99.90
32522;DHT22;18963;51.504;5.316;2023-06-22T14:08:56;18.10;99.90
32522;DHT22;18963;51.504;5.316;2023-06-22T14:11:21;18.10;99.90
32522;DHT22;18963;51.504;5.316;2023-06-22T14:13:47;18.10;99.90
32522;DHT22;18963;51.504;5.316;2023-06-22T14:16:12;18.00;99.90
32522;DHT22;18963;51.504;5.316;2023-06-22T14:18:38;18.00;99.90
32522;DHT22;18963;51.504;5.316;2023-06-22T14:21:04;18.00;99.90
32522;DHT22;18963;51.504;5.316;2023-06-22T14:23:29;18.00;99.90
32522;DHT22;18963;51.504;5.316;2023-06-22T14:25:55;18.00;99.90
32522;DHT22;18963;51.504;5.316;2023-06-22T14:28:20;18.00;99.90
32522;DHT22;18963;51.504;5.316;2023-06-22T14:30:46;18.00;99.90
32522;DHT22;18963;51.504;5.316;2023-06-22T14:33:12;18.00;99.90
32522;DHT22;18963;51.504;5.316;2023-06-22T14:35:37;17.90;99.90
32522;DHT22;18963;51.504;5.316;2023-06-22T14:38:03;18.00;99.90
32522;DHT22;18963;51.504;5.316;2023-06-22T14:40:28;17.90;99.90
32522;DHT22;18963;51.504;5.316;2023-06-22T14:42:54;17.90;99.90
32522;DHT22;18963;51.504;5.316;2023-06-22T14:45:22;17.90;99.90
32522;DHT22;18963;51.504;5.316;2023-06-22T14:47:47;17.80;99.90
32522;DHT22;18963;51.504;5.316;2023-06-22T14:50:13;17.80;99.90
32522;DHT22;18963;51.504;5.316;2023-06-22T14:52:38;17.80;99.90
32522;DHT22;18963;51.504;5.316;2023-06-22T14:55:04;17.80;99.90
32522;DHT22;18963;51.504;5.316;2023-06-22T14:57:30;17.80;99.90
32522;DHT22;18963;51.504;5.316;2023-06-22T14:59:55;17.80;99.90
32522;DHT22;18963;51.504;5.316;2023-06-22T15:02:21;17.80;99.90
32522;DHT22;18963;51.504;5.316;2023-06-22T15:04:46;17.80;99.90
32522;DHT22;18963;51.504;5.316;2023-06-22T15:07:12;17.80;99.90
32522;DHT22;18963;51.504;5.316;2023-06-22T15:09:37;17.80;99.90
32522;DHT22;18963;51.504;5.316;2023-06-22T15:12:06;17.80;99.90
32522;DHT22;18963;51.504;5.316;2023-06-22T15:14:42;17.80;99.90
32522;DHT22;18963;51.504;5.316;2023-06-22T15:17:08;17.80;99.90
32522;DHT22;18963;51.504;5.316;2023-06-22T15:19:39;17.80;99.90
32522;DHT22;18963;51.504;5.316;2023-06-22T15:22:05;17.80;99.90
32522;DHT22;18963;51.504;5.316;2023-06-22T15:24:31;17.80;99.90
32522;DHT22;18963;51.504;5.316;2023-06-22T15:26:56;17.80;99.90